Cumberland, OH (43732)

4:30 AM EDT on November 01, 2014 (GMT -0400)
OHDOT 82-IR77 MM 36 | Change Station
CLOSE
Current Station
Personal Weather Station
Location: Buffalo, OH
Elevation: 807 ft
Nearby Weather Stations

Elev 807 ft 39.91 °N, 81.53 °W | Updated 50 minutes ago

Overcast
Overcast
42 °F
Feels Like 40 °F
N
4
Wind Variable Wind from NNW
Gusts 7.0 mph

Today
High -- | Low -- °F
--% Chance of Precip.
Yesterday
High -- | Low -- °F
Precip. -- in
7:55 AM 6:24 PM
Waxing Gibbous, 64% visible
Pressure 29.93 in
Visibility 5.0 miles
Clouds Mostly Cloudy 800 ft
Overcast 2300 ft
Windchill 40 °F
Dew Point 42 °F
Humidity 100%
Rainfall -999.00 in
Snow Depth Not available.
UV 0 out of 12
Pollen .10 out of 12
Air Quality Not available.
Flu Activity Not available.
METAR KZZV 010753Z AUTO 34005KT 5SM -RA BR BKN008 OVC023 05/04 A2991 RMK AO2 CIG 006V011 SLP133 P0001 T00500039

More Conditions Fewer Conditions

Pressure 29.93 in
Visibility 5.0 miles
Clouds Mostly Cloudy 800 ft
Overcast 2300 ft
Windchill 40 °F
Dew Point 42 °F
Humidity 100%
Rainfall -999.00 in
Snow Depth Not available.
UV 0 out of 12
Pollen .10 out of 12
Air Quality Not available.
Flu Activity Not available.
METAR KZZV 010753Z AUTO 34005KT 5SM -RA BR BKN008 OVC023 05/04 A2991 RMK AO2 CIG 006V011 SLP133 P0001 T00500039

More Conditions Fewer Conditions

10-Day Weather Forecast

Almanac

Astronomy

Nov. 01, 2014 Rise Set
Actual Time
Civil Twilight
Nautical Twilight
Astronomical Twilight
Moon
Length of Visible Light
Length of Day
Tomorrow will be .
, % of the Moon is Illuminated

Today's Extremes

State Highs State Lows

Community

WunderPhotos

Upload Photos

1,766,869 photos uploaded!

WunderBlogs® & News

Nearby

Air Quality

  Air Quality AQ Index Pollutant
Not available.

Snow Depth

Station Depth Elevation

Earthquake Activity

City Distance Mag. Time & Date
Minimum magnitude displayed is 2.5.

Coastal Water Temperatures

Place Temperature

Nearby Weather Stations